Time;durP1;ratioP1;P1;durP2;ratioP2;P2;SDS_P1;SDS_P2;PMS_P1;PMS_P2;Temp;Humidity;BMP_temperature;BMP_pressure;BME280_temperature;BME280_humidity;BME280_pressure;Samples;Min_cycle;Max_cycle;Signal;HPM_P1;HPM_P2
2023/05/12 00:01:40;;;;;;;5.47;5.07;;;;;;;;;;5070532;28;20556;-57
2023/05/12 00:04:08;;;;;;;5.85;5.40;;;;;;;;;;5070740;28;20758;-56
2023/05/12 00:06:34;;;;;;;5.90;5.40;;;;;;;;;;5071094;28;20419;-57
2023/05/12 00:09:00;;;;;;;5.70;5.20;;;;;;;;;;5070638;28;20403;-56
2023/05/12 00:11:26;;;;;;;5.80;5.40;;;;;;;;;;5070843;28;20568;-57
2023/05/12 00:13:53;;;;;;;5.05;4.65;;;;;;;;;;5070202;28;20458;-57
2023/05/12 00:16:20;;;;;;;5.28;4.85;;;;;;;;;;5070955;28;20414;-56
2023/05/12 00:18:46;;;;;;;5.53;5.03;;;;;;;;;;5067717;28;20451;-56
2023/05/12 00:21:13;;;;;;;5.22;4.82;;;;;;;;;;5063522;28;20961;-57
2023/05/12 00:23:39;;;;;;;5.53;5.07;;;;;;;;;;5068882;28;20490;-58
2023/05/12 00:26:05;;;;;;;5.38;4.95;;;;;;;;;;5070614;28;20468;-55
2023/05/12 00:28:32;;;;;;;5.30;4.90;;;;;;;;;;5070539;28;20479;-55
2023/05/12 00:31:01;;;;;;;5.57;5.17;;;;;;;;;;5070339;28;20475;-56
2023/05/12 00:33:27;;;;;;;5.37;4.87;;;;;;;;;;5070206;28;20479;-55
2023/05/12 00:35:53;;;;;;;5.40;4.90;;;;;;;;;;5070428;28;20479;-56
2023/05/12 00:38:20;;;;;;;5.40;5.00;;;;;;;;;;5070530;28;20407;-56
2023/05/12 00:40:46;;;;;;;4.97;4.57;;;;;;;;;;5070243;28;20962;-55
2023/05/12 00:43:12;;;;;;;5.47;4.97;;;;;;;;;;5070222;28;20412;-59
2023/05/12 00:45:38;;;;;;;4.70;4.40;;;;;;;;;;5070077;28;20396;-55
2023/05/12 00:48:05;;;;;;;5.10;4.60;;;;;;;;;;5070109;28;20480;-55
2023/05/12 00:50:31;;;;;;;4.45;4.15;;;;;;;;;;5070176;28;20407;-55
2023/05/12 00:52:58;;;;;;;4.40;4.03;;;;;;;;;;5070092;28;20392;-55
2023/05/12 00:55:26;;;;;;;3.85;3.55;;;;;;;;;;5070272;28;20475;-55
2023/05/12 00:57:52;;;;;;;3.37;3.17;;;;;;;;;;5070107;28;20490;-55
2023/05/12 01:00:18;;;;;;;2.97;2.78;;;;;;;;;;5070287;28;20400;-54
2023/05/12 01:02:44;;;;;;;3.00;2.80;;;;;;;;;;5070057;28;20504;-55
2023/05/12 01:05:11;;;;;;;2.97;2.77;;;;;;;;;;5069914;28;20921;-55
2023/05/12 01:07:37;;;;;;;3.63;3.42;;;;;;;;;;5070253;28;20442;-55
2023/05/12 01:10:04;;;;;;;3.80;3.50;;;;;;;;;;5070052;28;20502;-55
2023/05/12 01:12:32;;;;;;;3.40;3.20;;;;;;;;;;5069906;28;20755;-55
2023/05/12 01:14:58;;;;;;;3.33;3.13;;;;;;;;;;5069959;28;20790;-55
2023/05/12 01:17:27;;;;;;;3.47;3.17;;;;;;;;;;5070021;28;20478;-55
2023/05/12 01:19:54;;;;;;;3.72;3.42;;;;;;;;;;5069959;28;20482;-55
2023/05/12 01:22:20;;;;;;;3.70;3.40;;;;;;;;;;5070081;28;20408;-55
2023/05/12 01:24:48;;;;;;;4.28;3.97;;;;;;;;;;5069899;28;20486;-55
2023/05/12 01:27:16;;;;;;;4.47;4.05;;;;;;;;;;5069688;28;20403;-55
2023/05/12 01:29:42;;;;;;;4.40;4.05;;;;;;;;;;5069855;28;20411;-55
2023/05/12 01:32:08;;;;;;;5.18;4.78;;;;;;;;;;5069984;28;20461;-56
2023/05/12 01:34:34;;;;;;;4.82;4.40;;;;;;;;;;5069943;28;20484;-56
2023/05/12 01:37:00;;;;;;;4.78;4.40;;;;;;;;;;5069612;28;20946;-57
2023/05/12 01:39:26;;;;;;;5.10;4.70;;;;;;;;;;5069690;28;20415;-57
2023/05/12 01:41:52;;;;;;;6.60;6.10;;;;;;;;;;5069739;28;20411;-57
2023/05/12 01:44:20;;;;;;;8.37;7.63;;;;;;;;;;5069969;28;20753;-56
2023/05/12 01:46:47;;;;;;;6.20;5.70;;;;;;;;;;5069671;28;20739;-56
2023/05/12 01:49:13;;;;;;;5.60;5.20;;;;;;;;;;5069547;28;20445;-56
2023/05/12 01:51:39;;;;;;;5.47;5.07;;;;;;;;;;5069726;28;20398;-56
2023/05/12 01:54:05;;;;;;;5.38;4.97;;;;;;;;;;5069662;28;20893;-56
2023/05/12 01:56:31;;;;;;;5.40;5.00;;;;;;;;;;5069611;28;20392;-56
2023/05/12 01:58:57;;;;;;;5.40;5.00;;;;;;;;;;5072688;28;20457;-56
2023/05/12 02:01:27;;;;;;;5.80;5.30;;;;;;;;;;5073376;28;20435;-56
2023/05/12 02:03:54;;;;;;;5.25;4.85;;;;;;;;;;5073224;28;20481;-56
2023/05/12 02:06:20;;;;;;;5.38;4.95;;;;;;;;;;5073369;28;20419;-56
2023/05/12 02:08:46;;;;;;;5.60;5.10;;;;;;;;;;5073183;28;20441;-56
2023/05/12 02:11:12;;;;;;;5.20;4.80;;;;;;;;;;5072882;28;20434;-56
2023/05/12 02:13:38;;;;;;;5.32;4.93;;;;;;;;;;5073198;28;20431;-56
2023/05/12 02:16:04;;;;;;;5.35;4.95;;;;;;;;;;5073090;28;20396;-56
2023/05/12 02:18:32;;;;;;;5.70;5.10;;;;;;;;;;5073130;28;20411;-56
2023/05/12 02:20:58;;;;;;;5.90;5.40;;;;;;;;;;5072884;28;20438;-56
2023/05/12 02:23:24;;;;;;;5.78;5.28;;;;;;;;;;5072781;28;20420;-56
2023/05/12 02:25:50;;;;;;;6.10;5.60;;;;;;;;;;5073010;28;20992;-56
2023/05/12 02:28:16;;;;;;;6.00;5.50;;;;;;;;;;5072759;28;20471;-56
2023/05/12 02:30:44;;;;;;;5.60;5.20;;;;;;;;;;5072738;28;20403;-55
2023/05/12 02:33:10;;;;;;;5.43;4.88;;;;;;;;;;5072658;28;20399;-55
2023/05/12 02:35:38;;;;;;;5.70;5.20;;;;;;;;;;5072808;28;20955;-55
2023/05/12 02:38:04;;;;;;;6.00;5.50;;;;;;;;;;5072810;28;20476;-56
2023/05/12 02:40:30;;;;;;;5.65;5.15;;;;;;;;;;5072643;28;20498;-56
2023/05/12 02:42:56;;;;;;;5.57;5.07;;;;;;;;;;5072352;28;20432;-56
2023/05/12 02:45:22;;;;;;;5.75;5.25;;;;;;;;;;5072590;28;20453;-56
2023/05/12 02:47:48;;;;;;;5.63;5.22;;;;;;;;;;5072425;28;20877;-56
2023/05/12 02:50:15;;;;;;;6.20;5.60;;;;;;;;;;5072364;28;20420;-56
2023/05/12 02:52:42;;;;;;;5.93;5.47;;;;;;;;;;5072426;28;20481;-56
2023/05/12 02:55:08;;;;;;;5.65;5.15;;;;;;;;;;5072321;28;20423;-56
2023/05/12 02:57:34;;;;;;;6.15;5.65;;;;;;;;;;5072464;28;20429;-56
2023/05/12 03:00:00;;;;;;;6.30;5.80;;;;;;;;;;5072183;28;20425;-56
2023/05/12 03:02:26;;;;;;;6.53;6.03;;;;;;;;;;5072196;28;20423;-56
2023/05/12 03:04:52;;;;;;;6.87;6.37;;;;;;;;;;5072181;28;20453;-56
2023/05/12 03:07:18;;;;;;;6.13;5.63;;;;;;;;;;5072139;28;20414;-56
2023/05/12 03:09:46;;;;;;;6.45;5.95;;;;;;;;;;5071327;28;20415;-56
2023/05/12 03:12:12;;;;;;;6.07;5.60;;;;;;;;;;5071864;28;20408;-56
2023/05/12 03:14:38;;;;;;;6.68;6.18;;;;;;;;;;5072088;28;20466;-56
2023/05/12 03:17:04;;;;;;;6.40;5.90;;;;;;;;;;5071988;28;20395;-56
2023/05/12 03:19:30;;;;;;;6.03;5.63;;;;;;;;;;5071859;28;20415;-56
2023/05/12 03:21:56;;;;;;;6.60;6.10;;;;;;;;;;5071639;28;20419;-56
2023/05/12 03:24:22;;;;;;;6.30;5.88;;;;;;;;;;5071813;28;20392;-56
2023/05/12 03:26:49;;;;;;;7.32;6.72;;;;;;;;;;5071759;28;20449;-56
2023/05/12 03:29:15;;;;;;;6.60;6.10;;;;;;;;;;5071630;28;20453;-56
2023/05/12 03:31:41;;;;;;;7.03;6.50;;;;;;;;;;5071652;28;20392;-56
2023/05/12 03:34:07;;;;;;;6.55;6.05;;;;;;;;;;5071401;28;20411;-56
2023/05/12 03:36:33;;;;;;;7.13;6.57;;;;;;;;;;5071684;28;20904;-56
2023/05/12 03:38:59;;;;;;;6.90;6.40;;;;;;;;;;5071462;28;20406;-56
2023/05/12 03:41:26;;;;;;;6.90;6.40;;;;;;;;;;5071181;28;20893;-56
2023/05/12 03:43:53;;;;;;;6.70;6.20;;;;;;;;;;5071440;28;20403;-56
2023/05/12 03:46:19;;;;;;;6.68;6.18;;;;;;;;;;5071682;28;20906;-56
2023/05/12 03:48:45;;;;;;;7.25;6.68;;;;;;;;;;5071293;28;20797;-56
2023/05/12 03:51:11;;;;;;;7.53;6.93;;;;;;;;;;5071050;28;20442;-56
2023/05/12 03:53:44;;;;;;;7.97;7.38;;;;;;;;;;5071187;28;20404;-56
2023/05/12 03:56:10;;;;;;;7.70;7.20;;;;;;;;;;5070498;28;20403;-56
2023/05/12 03:58:36;;;;;;;8.40;7.70;;;;;;;;;;5071103;28;20889;-56
2023/05/12 04:01:03;;;;;;;8.70;8.00;;;;;;;;;;5070991;28;20395;-56
2023/05/12 04:03:30;;;;;;;7.75;7.18;;;;;;;;;;5070637;28;20411;-56
2023/05/12 04:05:59;;;;;;;8.60;8.00;;;;;;;;;;5070856;28;20400;-56
2023/05/12 04:08:25;;;;;;;8.77;8.05;;;;;;;;;;5070713;28;20858;-56
2023/05/12 04:10:53;;;;;;;9.18;8.48;;;;;;;;;;5071081;28;20419;-56
2023/05/12 04:13:19;;;;;;;9.07;8.32;;;;;;;;;;5070864;28;20400;-56
2023/05/12 04:15:46;;;;;;;9.40;8.70;;;;;;;;;;5070641;28;20403;-56
2023/05/12 04:18:13;;;;;;;9.05;8.35;;;;;;;;;;5070551;28;20494;-56
2023/05/12 04:20:39;;;;;;;9.05;8.35;;;;;;;;;;5070667;28;20406;-56
2023/05/12 04:23:05;;;;;;;8.30;7.70;;;;;;;;;;5070668;28;20407;-56
2023/05/12 04:25:31;;;;;;;9.48;8.60;;;;;;;;;;5070506;28;20414;-56
2023/05/12 04:27:57;;;;;;;9.70;8.90;;;;;;;;;;5070628;28;20879;-56
2023/05/12 04:30:23;;;;;;;8.85;8.15;;;;;;;;;;5070398;28;20770;-56
2023/05/12 04:32:49;;;;;;;9.27;8.57;;;;;;;;;;5070569;28;20881;-56
2023/05/12 04:35:17;;;;;;;9.05;8.25;;;;;;;;;;5070108;28;20664;-56
2023/05/12 04:37:43;;;;;;;9.65;8.95;;;;;;;;;;5070447;28;20403;-56
2023/05/12 04:40:09;;;;;;;9.75;8.95;;;;;;;;;;5070426;28;20400;-56
2023/05/12 04:42:35;;;;;;;9.57;8.77;;;;;;;;;;5070198;28;20898;-56
2023/05/12 04:45:01;;;;;;;12.25;11.05;;;;;;;;;;5070321;28;20396;-55
2023/05/12 04:47:28;;;;;;;10.98;9.98;;;;;;;;;;5070055;28;20813;-55
2023/05/12 04:49:54;;;;;;;10.30;9.50;;;;;;;;;;5070285;28;20474;-55
2023/05/12 04:52:21;;;;;;;9.85;9.15;;;;;;;;;;5070323;28;20468;-55
2023/05/12 04:54:47;;;;;;;9.02;8.40;;;;;;;;;;5070256;28;20404;-55
2023/05/12 04:57:13;;;;;;;9.55;8.77;;;;;;;;;;5069901;28;20410;-55
2023/05/12 04:59:39;;;;;;;9.52;8.73;;;;;;;;;;5070163;28;20755;-55
2023/05/12 05:02:05;;;;;;;9.55;8.55;;;;;;;;;;5070182;28;20411;-55
2023/05/12 05:04:31;;;;;;;9.97;9.17;;;;;;;;;;5070164;28;20754;-55
2023/05/12 05:06:57;;;;;;;10.60;9.77;;;;;;;;;;5070122;28;20411;-55
2023/05/12 05:09:24;;;;;;;10.75;9.85;;;;;;;;;;5069999;28;20439;-56
2023/05/12 05:11:50;;;;;;;10.10;9.30;;;;;;;;;;5070145;28;20406;-55
2023/05/12 05:14:16;;;;;;;9.82;9.02;;;;;;;;;;5069854;28;20396;-55
2023/05/12 05:16:42;;;;;;;9.68;8.98;;;;;;;;;;5069640;28;20396;-55
2023/05/12 05:19:08;;;;;;;9.93;9.23;;;;;;;;;;5069760;28;20453;-56
2023/05/12 05:21:34;;;;;;;11.48;10.57;;;;;;;;;;5069973;28;20404;-55
2023/05/12 05:24:00;;;;;;;10.55;9.85;;;;;;;;;;5069783;28;20475;-56
2023/05/12 05:26:28;;;;;;;10.40;9.50;;;;;;;;;;5069639;28;20482;-55
2023/05/12 05:28:54;;;;;;;10.00;9.20;;;;;;;;;;5069838;28;20400;-55
2023/05/12 05:31:20;;;;;;;10.23;9.32;;;;;;;;;;5070215;28;20400;-56
2023/05/12 05:33:46;;;;;;;9.20;8.50;;;;;;;;;;5072789;28;20407;-56
2023/05/12 05:36:13;;;;;;;11.55;10.52;;;;;;;;;;5073651;28;20941;-56
2023/05/12 05:38:39;;;;;;;10.50;9.68;;;;;;;;;;5073618;28;20417;-56
2023/05/12 05:41:05;;;;;;;9.50;8.77;;;;;;;;;;5073802;28;20407;-56
2023/05/12 05:43:32;;;;;;;8.80;8.10;;;;;;;;;;5073353;28;20411;-56
2023/05/12 05:45:58;;;;;;;9.33;8.50;;;;;;;;;;5073517;28;20461;-55
2023/05/12 05:48:25;;;;;;;9.73;9.02;;;;;;;;;;5073450;28;20399;-56
2023/05/12 05:50:52;;;;;;;8.57;7.97;;;;;;;;;;5073656;28;20403;-56
2023/05/12 05:53:18;;;;;;;8.50;7.80;;;;;;;;;;5073243;28;20402;-56
2023/05/12 05:55:44;;;;;;;8.65;7.95;;;;;;;;;;5073297;28;20494;-55
2023/05/12 05:58:10;;;;;;;7.97;7.38;;;;;;;;;;5073246;28;20402;-56
2023/05/12 06:00:37;;;;;;;8.15;7.35;;;;;;;;;;5073330;28;20396;-56
2023/05/12 06:03:03;;;;;;;8.05;7.45;;;;;;;;;;5072914;28;20431;-55
2023/05/12 06:05:29;;;;;;;7.25;6.72;;;;;;;;;;5073069;28;20545;-55
2023/05/12 06:07:55;;;;;;;7.50;6.90;;;;;;;;;;5073260;28;20473;-56
2023/05/12 06:10:21;;;;;;;7.60;7.00;;;;;;;;;;5073107;28;20431;-56
2023/05/12 06:12:49;;;;;;;7.10;6.60;;;;;;;;;;5073106;28;20395;-56
2023/05/12 06:15:15;;;;;;;8.07;7.43;;;;;;;;;;5072964;28;20413;-56
2023/05/12 06:17:42;;;;;;;7.30;6.80;;;;;;;;;;5072749;28;20494;-56
2023/05/12 06:20:08;;;;;;;7.35;6.75;;;;;;;;;;5072977;28;20431;-56
2023/05/12 06:22:34;;;;;;;7.80;7.10;;;;;;;;;;5072850;28;20782;-56
2023/05/12 06:25:01;;;;;;;6.97;6.38;;;;;;;;;;5072836;28;20471;-56
2023/05/12 06:27:27;;;;;;;6.90;6.40;;;;;;;;;;5072657;28;20445;-56
2023/05/12 06:29:53;;;;;;;7.15;6.50;;;;;;;;;;5072817;28;20805;-56
2023/05/12 06:32:18;;;;;;;7.40;6.80;;;;;;;;;;5072769;28;20407;-56
2023/05/12 06:34:46;;;;;;;6.67;6.17;;;;;;;;;;5072447;28;20412;-56
2023/05/12 06:37:12;;;;;;;6.85;6.35;;;;;;;;;;5072539;28;20482;-56
2023/05/12 06:39:38;;;;;;;7.38;6.78;;;;;;;;;;5072578;28;20430;-56
2023/05/12 06:42:04;;;;;;;7.63;6.63;;;;;;;;;;5072403;28;20473;-56
2023/05/12 06:44:30;;;;;;;6.90;6.20;;;;;;;;;;5071433;28;20396;-57
2023/05/12 06:46:56;;;;;;;7.10;6.60;;;;;;;;;;5072428;28;20471;-56
2023/05/12 06:49:23;;;;;;;6.60;6.00;;;;;;;;;;5072517;28;20944;-57
2023/05/12 06:51:50;;;;;;;6.13;5.65;;;;;;;;;;5072443;28;20403;-57
2023/05/12 06:54:16;;;;;;;7.43;6.73;;;;;;;;;;5072286;28;20735;-57
2023/05/12 06:56:42;;;;;;;7.15;6.00;;;;;;;;;;5072092;28;20399;-57
2023/05/12 06:59:08;;;;;;;6.07;5.57;;;;;;;;;;5072324;28;20496;-57
2023/05/12 07:01:34;;;;;;;6.45;5.28;;;;;;;;;;5072297;28;20419;-57
2023/05/12 07:04:00;;;;;;;6.15;5.65;;;;;;;;;;5072119;28;20435;-57
2023/05/12 07:06:26;;;;;;;5.20;4.78;;;;;;;;;;5071969;28;20957;-58
2023/05/12 07:08:54;;;;;;;5.88;5.30;;;;;;;;;;5072077;28;20913;-57
2023/05/12 07:11:20;;;;;;;6.03;5.53;;;;;;;;;;5072064;28;20400;-58
2023/05/12 07:13:46;;;;;;;5.20;4.80;;;;;;;;;;5071892;28;20801;-57
2023/05/12 07:16:12;;;;;;;5.97;5.38;;;;;;;;;;5071912;28;20408;-58
2023/05/12 07:18:38;;;;;;;5.20;4.80;;;;;;;;;;5071774;28;20449;-58
2023/05/12 07:21:04;;;;;;;5.00;4.60;;;;;;;;;;5072018;28;20395;-57
2023/05/12 07:23:31;;;;;;;5.10;4.70;;;;;;;;;;5071495;28;20817;-57
2023/05/12 07:25:59;;;;;;;5.20;4.80;;;;;;;;;;5071634;28;20895;-57
2023/05/12 07:28:25;;;;;;;5.20;4.70;;;;;;;;;;5071571;28;20878;-57
2023/05/12 07:30:51;;;;;;;6.18;4.65;;;;;;;;;;5071743;28;20885;-57
2023/05/12 07:33:17;;;;;;;4.65;4.25;;;;;;;;;;5071523;28;20395;-57
2023/05/12 07:35:43;;;;;;;4.65;4.18;;;;;;;;;;5071228;28;20496;-57
2023/05/12 07:38:09;;;;;;;4.57;4.17;;;;;;;;;;5071407;28;20406;-58
2023/05/12 07:40:35;;;;;;;4.57;3.60;;;;;;;;;;5071343;28;20878;-59
2023/05/12 07:43:02;;;;;;;4.00;3.60;;;;;;;;;;5071406;28;20416;-56
2023/05/12 07:45:28;;;;;;;4.47;4.07;;;;;;;;;;5071209;28;20431;-57
2023/05/12 07:47:54;;;;;;;4.85;4.00;;;;;;;;;;5071348;28;20434;-56
2023/05/12 07:50:20;;;;;;;5.00;4.35;;;;;;;;;;5071042;28;20442;-56
2023/05/12 07:52:47;;;;;;;5.82;4.72;;;;;;;;;;5070530;28;20403;-57
2023/05/12 07:55:14;;;;;;;5.00;4.60;;;;;;;;;;5068009;28;20789;-56
2023/05/12 07:57:40;;;;;;;5.10;4.47;;;;;;;;;;5070269;28;20951;-56
2023/05/12 08:00:09;;;;;;;4.82;4.43;;;;;;;;;;5070282;28;20395;-56
2023/05/12 08:02:36;;;;;;;5.70;4.25;;;;;;;;;;5070075;28;20426;-56
2023/05/12 08:05:03;;;;;;;4.85;4.28;;;;;;;;;;5069924;28;20461;-56
2023/05/12 08:07:29;;;;;;;4.90;4.40;;;;;;;;;;5069843;28;20518;-56
2023/05/12 08:09:55;;;;;;;4.38;3.90;;;;;;;;;;5069569;28;20949;-56
2023/05/12 08:12:21;;;;;;;4.32;3.92;;;;;;;;;;5070107;28;20483;-56
2023/05/12 08:14:46;;;;;;;4.22;3.92;;;;;;;;;;5069817;28;20487;-57
2023/05/12 08:17:14;;;;;;;4.50;4.00;;;;;;;;;;5069900;28;20916;-57
2023/05/12 08:19:40;;;;;;;3.90;3.60;;;;;;;;;;5069715;28;20408;-57
2023/05/12 08:22:06;;;;;;;5.22;4.00;;;;;;;;;;5069839;28;20408;-57
2023/05/12 08:24:32;;;;;;;4.35;3.95;;;;;;;;;;5069655;28;20411;-56
2023/05/12 08:26:58;;;;;;;4.57;3.78;;;;;;;;;;5069855;28;20829;-56
2023/05/12 08:29:26;;;;;;;4.97;3.72;;;;;;;;;;5069723;28;20410;-58
2023/05/12 08:31:52;;;;;;;4.57;3.50;;;;;;;;;;5069738;28;20396;-57
2023/05/12 08:34:19;;;;;;;4.15;3.42;;;;;;;;;;5069411;28;20457;-58
2023/05/12 08:36:46;;;;;;;5.22;3.70;;;;;;;;;;5069687;28;20403;-57
2023/05/12 08:39:12;;;;;;;4.20;3.80;;;;;;;;;;5069619;28;20553;-58
2023/05/12 08:41:42;;;;;;;4.40;3.75;;;;;;;;;;5067620;28;20404;-58
2023/05/12 08:44:09;;;;;;;3.33;3.05;;;;;;;;;;5069391;28;20454;-57
2023/05/12 08:46:35;;;;;;;3.83;3.50;;;;;;;;;;5069635;28;20399;-58
2023/05/12 08:49:02;;;;;;;5.05;3.58;;;;;;;;;;5069258;28;20457;-58
2023/05/12 08:51:31;;;;;;;3.78;3.42;;;;;;;;;;5069371;28;20790;-59
2023/05/12 08:53:57;;;;;;;4.32;3.33;;;;;;;;;;5069448;28;20433;-58
2023/05/12 08:56:23;;;;;;;4.90;3.58;;;;;;;;;;5069329;28;20916;-57
2023/05/12 08:58:50;;;;;;;3.90;3.53;;;;;;;;;;5069365;28;20457;-57
2023/05/12 09:01:16;;;;;;;3.93;3.30;;;;;;;;;;5069451;28;20396;-57
2023/05/12 09:03:42;;;;;;;4.87;3.20;;;;;;;;;;5069655;28;20415;-58
2023/05/12 09:06:10;;;;;;;4.43;3.33;;;;;;;;;;5069771;28;20483;-55
2023/05/12 09:08:38;;;;;;;3.50;3.20;;;;;;;;;;5069362;28;20486;-56
2023/05/12 09:11:04;;;;;;;3.47;3.17;;;;;;;;;;5069972;28;20453;-57
2023/05/12 09:13:35;;;;;;;3.22;2.90;;;;;;;;;;5069684;28;20391;-56
2023/05/12 09:16:02;;;;;;;3.83;3.38;;;;;;;;;;5069982;28;20793;-57
2023/05/12 09:18:31;;;;;;;5.60;3.47;;;;;;;;;;5069665;28;20423;-57
2023/05/12 09:20:57;;;;;;;4.60;3.10;;;;;;;;;;5069661;28;20403;-57
2023/05/12 09:23:23;;;;;;;4.37;3.40;;;;;;;;;;5069551;28;20461;-57
2023/05/12 09:26:02;;;;;;;3.78;3.22;;;;;;;;;;5069620;28;20387;-57
2023/05/12 09:28:38;;;;;;;4.05;2.90;;;;;;;;;;5069520;28;20403;-57
2023/05/12 09:31:14;;;;;;;8.43;3.17;;;;;;;;;;5070995;28;20661;-57
2023/05/12 09:33:40;;;;;;;3.10;2.80;;;;;;;;;;5072689;28;20195;-57
2023/05/12 09:36:06;;;;;;;3.73;3.10;;;;;;;;;;5072613;28;20235;-57
2023/05/12 09:38:32;;;;;;;3.40;3.10;;;;;;;;;;5070680;28;20205;-57
2023/05/12 09:40:59;;;;;;;4.77;3.07;;;;;;;;;;5070635;28;20486;-58
2023/05/12 09:43:25;;;;;;;4.03;2.90;;;;;;;;;;5070583;28;20227;-58
2023/05/12 09:45:51;;;;;;;5.80;2.90;;;;;;;;;;5070751;28;20615;-57
2023/05/12 09:48:17;;;;;;;3.47;3.17;;;;;;;;;;5070787;28;20203;-58
2023/05/12 09:50:44;;;;;;;3.30;3.00;;;;;;;;;;5070785;28;20249;-56
2023/05/12 09:53:10;;;;;;;4.30;2.97;;;;;;;;;;5070583;28;20196;-58
2023/05/12 09:55:36;;;;;;;4.77;3.00;;;;;;;;;;5070769;28;20195;-58
2023/05/12 09:58:07;;;;;;;3.00;2.70;;;;;;;;;;5070321;28;20565;-58
2023/05/12 10:00:34;;;;;;;3.40;3.03;;;;;;;;;;5070616;28;20208;-58
2023/05/12 10:03:01;;;;;;;3.20;2.90;;;;;;;;;;5070579;28;20226;-57
2023/05/12 10:05:27;;;;;;;4.80;3.30;;;;;;;;;;5070711;28;20222;-57
2023/05/12 10:07:57;;;;;;;3.70;3.13;;;;;;;;;;5070452;28;20187;-58
2023/05/12 10:10:25;;;;;;;3.57;2.93;;;;;;;;;;5070332;28;20203;-58
2023/05/12 10:12:51;;;;;;;5.20;2.83;;;;;;;;;;5070317;28;20196;-57
2023/05/12 10:15:19;;;;;;;6.30;3.37;;;;;;;;;;5070423;28;20203;-57
2023/05/12 10:17:46;;;;;;;3.50;2.83;;;;;;;;;;5070188;28;20662;-57
2023/05/12 10:20:12;;;;;;;3.40;3.10;;;;;;;;;;5073869;28;20202;-57
2023/05/12 10:22:39;;;;;;;3.83;3.00;;;;;;;;;;5073671;28;20211;-57
2023/05/12 10:25:07;;;;;;;6.20;3.30;;;;;;;;;;5073894;28;20238;-57
2023/05/12 10:27:34;;;;;;;3.67;2.80;;;;;;;;;;5073951;28;20207;-57
2023/05/12 10:30:01;;;;;;;4.50;2.83;;;;;;;;;;5073921;28;20290;-57
2023/05/12 10:32:28;;;;;;;3.17;2.53;;;;;;;;;;5073917;28;20195;-57
2023/05/12 10:34:55;;;;;;;3.80;3.00;;;;;;;;;;5072224;28;21098;-57
2023/05/12 10:37:22;;;;;;;5.15;2.80;;;;;;;;;;5072687;28;20433;-58
2023/05/12 10:39:48;;;;;;;5.13;3.20;;;;;;;;;;5072267;28;20413;-57
2023/05/12 10:42:16;;;;;;;5.60;3.00;;;;;;;;;;5072446;28;20396;-57
2023/05/12 10:44:48;;;;;;;3.30;2.95;;;;;;;;;;5072382;28;20670;-58
2023/05/12 10:47:14;;;;;;;4.63;2.60;;;;;;;;;;5073584;28;20211;-57
2023/05/12 10:49:42;;;;;;;4.87;2.47;;;;;;;;;;5073378;28;20252;-57
2023/05/12 10:52:10;;;;;;;3.37;2.37;;;;;;;;;;5073686;28;20201;-56
2023/05/12 10:54:39;;;;;;;3.20;2.50;;;;;;;;;;5073484;28;20203;-56
2023/05/12 10:57:12;;;;;;;2.60;2.40;;;;;;;;;;5073452;28;20237;-56
2023/05/12 10:59:46;;;;;;;3.50;2.80;;;;;;;;;;5073267;28;20248;-56
2023/05/12 11:02:15;;;;;;;9.07;2.87;;;;;;;;;;5073181;28;20209;-57
2023/05/12 11:04:46;;;;;;;5.93;2.77;;;;;;;;;;5072892;28;20227;-57
2023/05/12 11:07:12;;;;;;;3.27;2.60;;;;;;;;;;5072977;28;20671;-57
2023/05/12 11:09:39;;;;;;;3.80;2.90;;;;;;;;;;5072727;28;20207;-57
2023/05/12 11:12:06;;;;;;;3.23;2.60;;;;;;;;;;5072959;28;20243;-57
2023/05/12 11:14:32;;;;;;;4.88;3.00;;;;;;;;;;5071755;28;20412;-56
2023/05/12 11:16:58;;;;;;;3.03;2.50;;;;;;;;;;5072727;28;20245;-57
2023/05/12 11:19:24;;;;;;;4.57;2.93;;;;;;;;;;5072566;28;20202;-57
2023/05/12 11:21:51;;;;;;;2.73;2.40;;;;;;;;;;5073175;28;20199;-57
2023/05/12 11:24:17;;;;;;;2.83;2.30;;;;;;;;;;5072937;28;20233;-57
2023/05/12 11:26:44;;;;;;;7.57;2.60;;;;;;;;;;5072610;28;20867;-56
2023/05/12 11:29:10;;;;;;;3.07;2.60;;;;;;;;;;5062336;28;20199;-56
2023/05/12 11:31:36;;;;;;;5.13;2.93;;;;;;;;;;5070492;28;20641;-61
2023/05/12 11:34:03;;;;;;;3.73;2.47;;;;;;;;;;5072163;28;20210;-58
2023/05/12 11:36:35;;;;;;;2.87;2.57;;;;;;;;;;5072679;28;20201;-57
2023/05/12 11:39:02;;;;;;;4.00;2.47;;;;;;;;;;5072314;28;20210;-57
2023/05/12 11:41:28;;;;;;;3.43;2.47;;;;;;;;;;5072369;28;20257;-57
2023/05/12 11:43:54;;;;;;;3.40;2.17;;;;;;;;;;5071621;28;20224;-58
2023/05/12 11:46:25;;;;;;;3.17;2.50;;;;;;;;;;5071569;28;20215;-57
2023/05/12 11:48:55;;;;;;;3.73;2.50;;;;;;;;;;5071330;28;20199;-57
2023/05/12 11:51:21;;;;;;;4.93;3.00;;;;;;;;;;5071696;28;20191;-57
2023/05/12 11:53:47;;;;;;;4.00;2.50;;;;;;;;;;5071925;28;20192;-56
2023/05/12 11:56:19;;;;;;;3.60;2.40;;;;;;;;;;5071846;28;20209;-56
2023/05/12 11:58:51;;;;;;;3.73;2.90;;;;;;;;;;5072070;28;20296;-55
2023/05/12 12:01:17;;;;;;;2.50;2.30;;;;;;;;;;5071999;28;20198;-55
2023/05/12 12:03:47;;;;;;;3.37;2.50;;;;;;;;;;5071789;28;20324;-56
2023/05/12 12:06:13;;;;;;;3.63;2.57;;;;;;;;;;5071822;28;20189;-55
2023/05/12 12:08:48;;;;;;;4.00;2.63;;;;;;;;;;5071590;28;20220;-56
2023/05/12 12:11:14;;;;;;;4.70;2.40;;;;;;;;;;5071669;28;20735;-55
2023/05/12 12:13:47;;;;;;;2.53;2.33;;;;;;;;;;5071734;28;20293;-56
2023/05/12 12:16:13;;;;;;;2.30;2.10;;;;;;;;;;5071753;28;20206;-55
2023/05/12 12:18:39;;;;;;;4.87;2.27;;;;;;;;;;5071291;28;20299;-56
2023/05/12 12:21:05;;;;;;;3.97;2.10;;;;;;;;;;5071210;28;20275;-56
2023/05/12 12:23:31;;;;;;;3.17;2.50;;;;;;;;;;5071665;28;20592;-56
2023/05/12 12:25:57;;;;;;;3.73;2.30;;;;;;;;;;5069100;28;20206;-57
2023/05/12 12:28:23;;;;;;;4.90;2.43;;;;;;;;;;5069772;28;20205;-57
2023/05/12 12:30:51;;;;;;;4.20;2.30;;;;;;;;;;5071698;28;20722;-58
2023/05/12 12:33:17;;;;;;;3.57;2.23;;;;;;;;;;5071782;28;20211;-57
2023/05/12 12:35:43;;;;;;;4.00;2.43;;;;;;;;;;5071476;28;20333;-55
2023/05/12 12:38:09;;;;;;;4.57;2.30;;;;;;;;;;5071544;28;20215;-58
2023/05/12 12:40:35;;;;;;;2.37;2.17;;;;;;;;;;5071516;28;20744;-58
2023/05/12 12:43:01;;;;;;;3.47;2.50;;;;;;;;;;5070350;28;20315;-59
2023/05/12 12:45:27;;;;;;;3.00;2.47;;;;;;;;;;5071501;28;20204;-57
2023/05/12 12:47:55;;;;;;;5.63;2.60;;;;;;;;;;5071359;28;20206;-57
2023/05/12 12:50:21;;;;;;;3.70;2.47;;;;;;;;;;5071685;28;20251;-58
2023/05/12 12:52:48;;;;;;;3.47;1.90;;;;;;;;;;5071297;28;20198;-62
2023/05/12 12:55:14;;;;;;;5.60;2.80;;;;;;;;;;5071292;28;20274;-57
2023/05/12 12:57:40;;;;;;;3.83;2.97;;;;;;;;;;5071051;28;20254;-58
2023/05/12 13:00:07;;;;;;;3.83;2.77;;;;;;;;;;5071330;28;20204;-57
2023/05/12 13:02:33;;;;;;;4.17;2.40;;;;;;;;;;5071268;28;20223;-57
2023/05/12 13:05:05;;;;;;;2.60;2.40;;;;;;;;;;5071224;28;20264;-59
2023/05/12 13:07:31;;;;;;;2.70;2.40;;;;;;;;;;5071223;28;20203;-57
2023/05/12 13:09:58;;;;;;;2.60;2.40;;;;;;;;;;5071108;28;20199;-58
2023/05/12 13:12:24;;;;;;;5.30;2.53;;;;;;;;;;5071195;28;20225;-58
2023/05/12 13:14:50;;;;;;;3.17;2.43;;;;;;;;;;5071306;28;20286;-58
2023/05/12 13:17:16;;;;;;;3.13;2.40;;;;;;;;;;5070934;28;20290;-58
2023/05/12 13:19:42;;;;;;;2.60;2.37;;;;;;;;;;5070789;28;20191;-58
2023/05/12 13:22:09;;;;;;;2.70;2.27;;;;;;;;;;5071010;28;20724;-58
2023/05/12 13:24:35;;;;;;;3.57;2.40;;;;;;;;;;5070971;28;20300;-58
2023/05/12 13:27:06;;;;;;;2.63;2.23;;;;;;;;;;5070923;28;20200;-58
2023/05/12 13:29:32;;;;;;;4.80;2.60;;;;;;;;;;5070947;28;20295;-58
2023/05/12 13:31:58;;;;;;;3.23;2.53;;;;;;;;;;5070787;28;20293;-58
2023/05/12 13:34:24;;;;;;;4.00;2.50;;;;;;;;;;5070636;28;20233;-58
2023/05/12 13:36:50;;;;;;;5.20;2.37;;;;;;;;;;5070892;28;20626;-58
2023/05/12 13:39:18;;;;;;;5.03;2.60;;;;;;;;;;5070670;28;20683;-58
2023/05/12 13:41:44;;;;;;;3.80;2.40;;;;;;;;;;5070820;28;20225;-58
2023/05/12 13:44:10;;;;;;;3.77;2.50;;;;;;;;;;5070486;28;20616;-58
2023/05/12 13:46:36;;;;;;;4.63;2.47;;;;;;;;;;5070895;28;20200;-58
2023/05/12 13:49:02;;;;;;;2.87;2.30;;;;;;;;;;5070540;28;20208;-57
2023/05/12 13:51:28;;;;;;;3.80;2.20;;;;;;;;;;5070689;28;20292;-57
2023/05/12 13:53:54;;;;;;;3.33;2.40;;;;;;;;;;5072176;28;20193;-57
2023/05/12 13:56:23;;;;;;;2.70;2.17;;;;;;;;;;5074640;28;20660;-57
2023/05/12 13:58:49;;;;;;;3.67;2.30;;;;;;;;;;5074362;28;20210;-57
2023/05/12 14:01:15;;;;;;;3.23;2.03;;;;;;;;;;5074374;28;20567;-57
2023/05/12 14:03:41;;;;;;;3.53;2.00;;;;;;;;;;5074200;28;20652;-57
2023/05/12 14:06:08;;;;;;;2.80;2.47;;;;;;;;;;5074353;28;20284;-57
2023/05/12 14:08:34;;;;;;;2.90;2.00;;;;;;;;;;5074606;28;20280;-57
2023/05/12 14:11:00;;;;;;;3.00;2.23;;;;;;;;;;5074076;28;20644;-58
2023/05/12 14:13:27;;;;;;;3.53;2.53;;;;;;;;;;5074367;28;20201;-57
2023/05/12 14:15:53;;;;;;;3.27;2.27;;;;;;;;;;5074189;28;20214;-58
2023/05/12 14:18:19;;;;;;;2.40;2.10;;;;;;;;;;5074060;28;20246;-57
2023/05/12 14:20:45;;;;;;;2.80;2.10;;;;;;;;;;5073949;28;20200;-57
2023/05/12 14:23:11;;;;;;;2.50;2.10;;;;;;;;;;5073910;28;20231;-57
2023/05/12 14:25:37;;;;;;;3.57;2.30;;;;;;;;;;5073949;28;20192;-58
2023/05/12 14:28:03;;;;;;;2.50;2.30;;;;;;;;;;5074016;28;20208;-58
2023/05/12 14:30:33;;;;;;;3.33;2.20;;;;;;;;;;5073731;28;20192;-58
2023/05/12 14:32:59;;;;;;;2.97;2.10;;;;;;;;;;5073830;28;20201;-58
2023/05/12 14:35:26;;;;;;;3.03;2.37;;;;;;;;;;5073568;28;20331;-58
2023/05/12 14:37:52;;;;;;;2.67;2.10;;;;;;;;;;5073922;28;20199;-58
2023/05/12 14:40:18;;;;;;;3.50;2.33;;;;;;;;;;5073853;28;20621;-58